createdAt,value
2018-07-28T00:00:58.907Z,60.12
2018-07-28T00:01:58.916Z,60.22
2018-07-28T00:02:58.856Z,60.32
2018-07-28T00:03:58.852Z,60.42
2018-07-28T00:04:58.835Z,59.85
2018-07-28T00:05:58.853Z,60.35
2018-07-28T00:06:58.853Z,60.55
2018-07-28T00:07:58.840Z,60.32
2018-07-28T00:08:58.792Z,60.35
2018-07-28T00:09:58.824Z,60.15
2018-07-28T00:10:58.784Z,60.35
2018-07-28T00:11:58.799Z,60.35
2018-07-28T00:12:58.759Z,60.62
2018-07-28T00:13:58.759Z,60.22
2018-07-28T00:14:58.728Z,60.52
2018-07-28T00:15:58.721Z,60.72
2018-07-28T00:16:58.758Z,60.62
2018-07-28T00:17:58.710Z,60.22
2018-07-28T00:18:58.685Z,60.52
2018-07-28T00:19:58.677Z,60.42
2018-07-28T00:20:58.665Z,60.52
2018-07-28T00:21:58.678Z,60.62
2018-07-28T00:22:58.642Z,60.62
2018-07-28T00:23:58.683Z,60.52
2018-07-28T00:24:58.631Z,60.32
2018-07-28T00:25:58.611Z,60.52
2018-07-28T00:26:58.628Z,61.22
2018-07-28T00:27:58.590Z,61.85
2018-07-28T00:28:58.579Z,60.25
2018-07-28T00:29:58.590Z,61.25
2018-07-28T00:30:58.557Z,60.75
2018-07-28T00:31:58.570Z,60.45
2018-07-28T00:32:58.539Z,60.35
2018-07-28T00:33:58.548Z,60.45
2018-07-28T00:34:58.516Z,60.22
2018-07-28T00:35:58.508Z,60.35
2018-07-28T00:36:58.602Z,60.65
2018-07-28T00:37:58.485Z,60.75
2018-07-28T00:38:58.476Z,60.65
2018-07-28T00:39:58.512Z,60.75
2018-07-28T00:40:58.478Z,60.65
2018-07-28T00:41:58.574Z,60.55
2018-07-28T00:42:58.431Z,60.55
2018-07-28T00:43:58.480Z,60.25
2018-07-28T00:44:58.410Z,60.65
2018-07-28T00:45:58.397Z,61.35
2018-07-28T00:46:58.449Z,60.35
2018-07-28T00:47:58.394Z,60.25
2018-07-28T00:48:58.366Z,60.45
2018-07-28T00:49:58.370Z,60.75
2018-07-28T00:50:58.345Z,60.65
2018-07-28T00:51:58.361Z,60.15
2018-07-28T00:52:58.351Z,61.15
2018-07-28T00:53:58.313Z,60.55
2018-07-28T00:54:58.312Z,60.45
2018-07-28T00:55:58.298Z,62.27
2018-07-28T00:56:58.358Z,62.07
2018-07-28T00:57:58.271Z,62.67
2018-07-28T00:58:58.308Z,62.84
2018-07-28T00:59:58.251Z,62.37
2018-07-28T01:00:58.237Z,62.24
2018-07-28T01:01:58.257Z,62.67
2018-07-28T01:02:58.217Z,62.18
2018-07-28T01:03:58.249Z,61.68
2018-07-28T01:04:58.195Z,61.65
2018-07-28T01:05:58.193Z,62.18
2018-07-28T01:06:58.225Z,62.57
2018-07-28T01:07:58.169Z,61.98
2018-07-28T01:08:58.162Z,62.07
2018-07-28T01:09:58.167Z,62.07
2018-07-28T01:10:58.133Z,62.07
2018-07-28T01:11:58.146Z,62.57
2018-07-28T01:12:58.231Z,62.77
2018-07-28T01:13:58.103Z,62.27
2018-07-28T01:14:58.101Z,61.98
2018-07-28T01:15:58.086Z,62.77
2018-07-28T01:16:58.099Z,62.87
2018-07-28T01:17:58.093Z,62.77
2018-07-28T01:18:58.074Z,62.57
2018-07-28T01:19:58.045Z,62.50
2018-07-28T01:20:58.069Z,62.20
2018-07-28T01:21:58.060Z,62.81
2018-07-28T01:22:58.004Z,62.70
2018-07-28T01:23:58.001Z,62.81
2018-07-28T01:24:58.001Z,62.30
2018-07-28T01:25:57.975Z,62.40
2018-07-28T01:26:57.986Z,62.10
2018-07-28T01:27:57.951Z,61.90
2018-07-28T01:28:57.940Z,62.10
2018-07-28T01:29:57.997Z,61.21
2018-07-28T01:30:57.920Z,61.90
2018-07-28T01:31:57.909Z,60.91
2018-07-28T01:32:57.939Z,61.80
2018-07-28T01:33:57.889Z,61.80
2018-07-28T01:34:57.877Z,61.90
2018-07-28T01:35:57.872Z,62.10
2018-07-28T01:36:57.859Z,61.90
2018-07-28T01:37:57.870Z,62.10
2018-07-28T01:38:57.836Z,62.40
2018-07-28T01:39:57.828Z,62.20
2018-07-28T01:40:57.814Z,62.90
2018-07-28T01:41:57.824Z,62.81
2018-07-28T01:42:57.835Z,62.60
2018-07-28T01:43:57.785Z,62.30
2018-07-28T01:44:57.780Z,63.30
2018-07-28T01:45:57.761Z,62.81
2018-07-28T01:46:57.779Z,62.50
2018-07-28T01:47:57.776Z,62.50
2018-07-28T01:48:57.732Z,62.81
2018-07-28T01:49:57.723Z,63.10
2018-07-28T01:50:57.709Z,62.50
2018-07-28T01:51:57.744Z,62.90
2018-07-28T01:52:57.705Z,62.93
2018-07-28T01:53:57.694Z,62.93
2018-07-28T01:54:57.666Z,62.63
2018-07-28T01:55:57.654Z,62.73
2018-07-28T01:56:57.669Z,63.40
2018-07-28T01:57:57.636Z,62.83
2018-07-28T01:58:57.623Z,63.13
2018-07-28T01:59:57.637Z,63.03
2018-07-28T02:00:57.630Z,63.53
2018-07-28T02:01:57.619Z,63.33
2018-07-28T02:02:57.580Z,63.73
2018-07-28T02:03:57.577Z,63.76
2018-07-28T02:04:57.619Z,63.46
2018-07-28T02:05:57.568Z,64.46
2018-07-28T02:06:57.563Z,64.26
2018-07-28T02:07:57.527Z,64.46
2018-07-28T02:08:57.539Z,64.16
2018-07-28T02:09:57.507Z,64.76
2018-07-28T02:10:57.497Z,64.76
2018-07-28T02:11:57.509Z,64.69
2018-07-28T02:12:57.495Z,64.69
2018-07-28T02:13:57.467Z,64.59
2018-07-28T02:14:57.485Z,64.89
2018-07-28T02:15:57.463Z,64.79
2018-07-28T02:16:57.460Z,64.99
2018-07-28T02:17:57.424Z,64.99
2018-07-28T02:18:57.411Z,65.09
2018-07-28T02:19:57.399Z,65.83
2018-07-28T02:20:57.399Z,65.72
2018-07-28T02:21:57.406Z,66.02
2018-07-28T02:22:57.416Z,66.05
2018-07-28T02:23:57.394Z,66.13
2018-07-28T02:24:57.357Z,66.55
2018-07-28T02:25:57.336Z,67.55
2018-07-28T02:26:57.379Z,67.05
2018-07-28T02:27:57.322Z,66.96
2018-07-28T02:28:57.352Z,67.96
2018-07-28T02:29:57.302Z,67.86
2018-07-28T02:30:57.289Z,67.76
2018-07-28T02:31:57.299Z,68.05
2018-07-28T02:32:57.268Z,68.05
2018-07-28T02:33:57.259Z,68.26
2018-07-28T02:34:57.299Z,67.96
2018-07-28T02:35:57.235Z,68.05
2018-07-28T02:36:57.247Z,68.19
2018-07-28T02:37:57.218Z,68.16
2018-07-28T02:38:57.232Z,67.46
2018-07-28T02:39:57.189Z,67.86
2018-07-28T02:40:57.179Z,67.05
2018-07-28T02:41:57.218Z,66.96
2018-07-28T02:42:57.157Z,67.05
2018-07-28T02:43:57.146Z,67.96
2018-07-28T02:44:57.137Z,68.16
2018-07-28T02:45:57.124Z,67.46
2018-07-28T02:46:57.142Z,66.75
2018-07-28T02:47:57.123Z,67.16
2018-07-28T02:48:57.124Z,67.05
2018-07-28T02:49:57.104Z,67.55
2018-07-28T02:50:57.073Z,66.75
2018-07-28T02:51:57.116Z,66.89
2018-07-28T02:52:57.052Z,66.25
2018-07-28T02:53:57.042Z,66.09
2018-07-28T02:54:57.068Z,66.89
2018-07-28T02:55:57.026Z,66.89
2018-07-28T02:56:57.034Z,67.55
2018-07-28T02:57:57.002Z,67.09
2018-07-28T02:58:56.986Z,68.09
2018-07-28T02:59:56.984Z,68.19
2018-07-28T03:00:57.000Z,68.09
2018-07-28T03:01:57.026Z,67.99
2018-07-28T03:02:56.947Z,68.09
2018-07-28T03:03:56.947Z,68.49
2018-07-28T03:04:56.980Z,69.59
2018-07-28T03:05:56.918Z,68.59
2018-07-28T03:06:56.928Z,68.59
2018-07-28T03:07:56.916Z,68.69
2018-07-28T03:08:56.882Z,69.39
2018-07-28T03:09:56.875Z,68.99
2018-07-28T03:10:56.861Z,68.79
2018-07-28T03:11:56.879Z,68.99
2018-07-28T03:12:56.873Z,68.69
2018-07-28T03:13:56.828Z,68.49
2018-07-28T03:14:56.819Z,68.79
2018-07-28T03:15:56.807Z,69.59
2018-07-28T03:16:56.825Z,69.99
2018-07-28T03:17:56.788Z,69.39
2018-07-28T03:18:56.796Z,69.69
2018-07-28T03:19:56.764Z,68.89
2018-07-28T03:20:56.752Z,69.49
2018-07-28T03:21:56.786Z,69.42
2018-07-28T03:22:56.731Z,69.09
2018-07-28T03:23:56.723Z,69.89
2018-07-28T03:24:56.792Z,68.49
2018-07-28T03:25:56.702Z,68.62
2018-07-28T03:26:56.713Z,68.49
2018-07-28T03:27:56.681Z,68.59
2018-07-28T03:28:56.685Z,68.73
2018-07-28T03:29:56.663Z,68.52
2018-07-28T03:30:56.673Z,68.12
2018-07-28T03:31:56.673Z,69.02
2018-07-28T03:32:56.625Z,69.12
2018-07-28T03:33:56.617Z,68.92
2018-07-28T03:34:56.624Z,68.55
2018-07-28T03:35:56.594Z,69.16
2018-07-28T03:36:56.638Z,68.85
2018-07-28T03:37:56.574Z,68.73
2018-07-28T03:38:56.564Z,69.56
2018-07-28T03:39:56.556Z,68.76
2018-07-28T03:40:56.538Z,69.46
2018-07-28T03:41:56.557Z,70.96
2018-07-28T03:42:56.527Z,69.96
2018-07-28T03:43:56.536Z,70.06
2018-07-28T03:44:56.498Z,70.26
2018-07-28T03:45:56.486Z,70.16
2018-07-28T03:46:56.501Z,69.56
2018-07-28T03:47:56.470Z,68.85
2018-07-28T03:48:56.454Z,68.85
2018-07-28T03:49:56.448Z,68.65
2018-07-28T03:50:56.459Z,69.66
2018-07-28T03:51:56.484Z,69.96
2018-07-28T03:52:56.411Z,69.26
2018-07-28T03:53:56.431Z,69.26
2018-07-28T03:54:56.402Z,69.76
2018-07-28T03:55:56.378Z,69.35
2018-07-28T03:56:56.397Z,71.46
2018-07-28T03:57:56.380Z,69.29
2018-07-28T03:58:56.419Z,70.09
2018-07-28T03:59:56.358Z,71.50
2018-07-28T04:00:56.341Z,71.70
2018-07-28T04:01:56.352Z,72.40
2018-07-28T04:02:56.312Z,71.09
2018-07-28T04:03:56.324Z,69.99
2018-07-28T04:04:56.338Z,70.19
2018-07-28T04:05:56.271Z,71.80
2018-07-28T04:06:56.306Z,71.20
2018-07-28T04:07:56.273Z,70.50
2018-07-28T04:08:56.238Z,71.80
2018-07-28T04:09:56.227Z,71.39
2018-07-28T04:10:56.256Z,71.50
2018-07-28T04:11:56.251Z,70.23
2018-07-28T04:12:56.198Z,70.29
2018-07-28T04:13:56.201Z,70.03
2018-07-28T04:14:56.177Z,71.13
2018-07-28T04:15:56.164Z,71.43
2018-07-28T04:16:56.203Z,71.09
2018-07-28T04:17:56.143Z,71.53
2018-07-28T04:18:56.256Z,71.43
2018-07-28T04:19:56.120Z,71.53
2018-07-28T04:20:56.115Z,71.63
2018-07-28T04:21:56.142Z,71.73
2018-07-28T04:22:56.120Z,71.33
2018-07-28T04:23:56.076Z,71.93
2018-07-28T04:24:56.066Z,71.63
2018-07-28T04:25:56.056Z,73.64
2018-07-28T04:26:56.073Z,73.24
2018-07-28T04:27:56.037Z,72.20
2018-07-28T04:28:56.055Z,73.54
2018-07-28T04:29:56.015Z,72.50
2018-07-28T04:30:56.023Z,72.30
2018-07-28T04:31:56.025Z,72.40
2018-07-28T04:32:55.982Z,73.47
2018-07-28T04:33:55.975Z,72.27
2018-07-28T04:34:55.974Z,73.47
2018-07-28T04:35:55.950Z,73.67
2018-07-28T04:36:55.974Z,73.27
2018-07-28T04:37:55.932Z,73.43
2018-07-28T04:38:55.916Z,73.43
2018-07-28T04:39:55.906Z,72.83
2018-07-28T04:40:55.911Z,71.93
2018-07-28T04:41:55.912Z,71.09
2018-07-28T04:42:55.873Z,71.80
2018-07-28T04:43:55.916Z,70.79
2018-07-28T04:44:55.853Z,71.66
2018-07-28T04:45:55.841Z,72.56
2018-07-28T04:46:55.885Z,70.96
2018-07-28T04:47:55.821Z,68.26
2018-07-28T04:48:55.815Z,68.93
2018-07-28T04:49:55.805Z,68.52
2018-07-28T04:50:55.795Z,69.29
2018-07-28T04:51:55.807Z,68.49
2018-07-28T04:52:55.777Z,68.19
2018-07-28T04:53:55.803Z,66.86
2018-07-28T04:54:55.789Z,66.36
2018-07-28T04:55:55.738Z,65.16
2018-07-28T04:56:55.757Z,66.43
2018-07-28T04:57:55.733Z,67.63
2018-07-28T04:58:55.729Z,68.33
2018-07-28T04:59:55.701Z,66.89
2018-07-28T05:00:55.707Z,66.39
2018-07-28T05:01:55.698Z,66.23
2018-07-28T05:02:55.661Z,66.60
2018-07-28T05:03:55.653Z,66.30
2018-07-28T05:04:55.681Z,66.39
2018-07-28T05:05:55.652Z,66.66
2018-07-28T05:06:55.650Z,67.36
2018-07-28T05:07:55.627Z,66.17
2018-07-28T05:08:55.598Z,66.56
2018-07-28T05:09:55.587Z,66.77
2018-07-28T05:10:55.592Z,66.86
2018-07-28T05:11:55.591Z,66.66
2018-07-28T05:12:55.554Z,65.97
2018-07-28T05:13:55.544Z,65.07
2018-07-28T05:14:55.537Z,65.87
2018-07-28T05:15:55.599Z,65.37
2018-07-28T05:16:55.536Z,64.77
2018-07-28T05:17:55.501Z,64.47
2018-07-28T05:18:55.490Z,65.14
2018-07-28T05:19:55.482Z,65.44
2018-07-28T05:20:55.526Z,65.14
2018-07-28T05:21:55.505Z,65.23
2018-07-28T05:22:55.449Z,65.94
2018-07-28T05:23:55.437Z,66.03
2018-07-28T05:24:55.426Z,66.63
2018-07-28T05:25:55.415Z,66.56
2018-07-28T05:26:55.444Z,66.66
2018-07-28T05:27:55.421Z,65.97
2018-07-28T05:28:55.383Z,65.77
2018-07-28T05:29:55.386Z,65.77
2018-07-28T05:30:55.364Z,66.66
2018-07-28T05:31:55.374Z,67.93
2018-07-28T05:32:55.342Z,68.13
2018-07-28T05:33:55.357Z,67.86
2018-07-28T05:34:55.321Z,68.96
2018-07-28T05:35:55.310Z,66.66
2018-07-28T05:36:55.338Z,71.06
2018-07-28T05:37:55.289Z,69.76
2018-07-28T05:38:55.283Z,72.25
2018-07-28T05:39:55.320Z,73.15
2018-07-28T05:40:55.259Z,75.05
2018-07-28T05:41:55.270Z,74.75
2018-07-28T05:42:55.240Z,74.55
2018-07-28T05:43:55.224Z,75.35
2018-07-28T05:44:55.213Z,72.55
2018-07-28T05:45:55.239Z,73.35
2018-07-28T05:46:55.223Z,75.78
2018-07-28T05:47:55.186Z,74.98
2018-07-28T05:48:55.184Z,76.68
2018-07-28T05:49:55.171Z,76.08
2018-07-28T05:50:55.149Z,75.59
2018-07-28T05:51:55.234Z,76.08
2018-07-28T05:52:55.140Z,78.78
2018-07-28T05:53:55.119Z,74.72
2018-07-28T05:54:55.111Z,76.52
2018-07-28T05:55:55.097Z,74.12
2018-07-28T05:56:55.109Z,75.52
2018-07-28T05:57:55.129Z,74.92
2018-07-28T05:58:55.064Z,76.02
2018-07-28T05:59:55.064Z,76.12
2018-07-28T06:00:55.045Z,76.28
2018-07-28T06:01:55.068Z,73.82
2018-07-28T06:02:55.039Z,72.29
2018-07-28T06:03:55.046Z,72.99
2018-07-28T06:04:55.053Z,73.28
2018-07-28T06:05:54.989Z,73.28
2018-07-28T06:06:55.008Z,71.99
2018-07-28T06:07:54.972Z,73.05
2018-07-28T06:08:54.958Z,72.16
2018-07-28T06:09:54.962Z,71.86
2018-07-28T06:10:54.940Z,72.35
2018-07-28T06:11:54.958Z,69.73
2018-07-28T06:12:54.951Z,69.53
2018-07-28T06:13:54.916Z,67.23
2018-07-28T06:14:54.900Z,67.80
2018-07-28T06:15:54.914Z,67.30
2018-07-28T06:16:54.902Z,67.47
2018-07-28T06:17:54.862Z,67.47
2018-07-28T06:18:54.867Z,67.47
2018-07-28T06:19:54.840Z,66.64
2018-07-28T06:20:54.841Z,64.15
2018-07-28T06:21:55.042Z,65.84
2018-07-28T06:22:54.820Z,65.54
2018-07-28T06:23:54.798Z,64.15
2018-07-28T06:24:54.786Z,64.48
2018-07-28T06:25:54.817Z,65.24
2018-07-28T06:26:54.803Z,64.45
2018-07-28T06:27:54.755Z,65.05
2018-07-28T06:28:54.762Z,65.17
2018-07-28T06:29:54.766Z,65.97
2018-07-28T06:30:54.721Z,65.47
2018-07-28T06:31:54.784Z,65.27
2018-07-28T06:32:54.699Z,66.37
2018-07-28T06:33:54.692Z,66.37
2018-07-28T06:34:54.696Z,66.37
2018-07-28T06:35:54.686Z,66.37
2018-07-28T06:36:54.687Z,66.67
2018-07-28T06:37:54.645Z,63.98
2018-07-28T06:38:54.639Z,65.05
2018-07-28T06:39:54.626Z,64.04
2018-07-28T06:40:54.628Z,64.91
2018-07-28T06:41:54.715Z,65.28
2018-07-28T06:42:54.610Z,63.69
2018-07-28T06:43:54.586Z,62.56
2018-07-28T06:44:54.576Z,62.66
2018-07-28T06:45:54.569Z,62.53
2018-07-28T06:46:54.577Z,62.23
2018-07-28T06:47:54.576Z,62.04
2018-07-28T06:48:54.543Z,62.30
2018-07-28T06:49:54.519Z,63.20
2018-07-28T06:50:54.512Z,62.57
2018-07-28T06:51:54.572Z,61.18
2018-07-28T06:52:54.497Z,61.25
2018-07-28T06:53:54.482Z,61.25
2018-07-28T06:54:54.492Z,59.99
2018-07-28T06:55:54.455Z,61.05
2018-07-28T06:56:54.485Z,60.46
2018-07-28T06:57:54.476Z,60.06
2018-07-28T06:58:54.456Z,60.58
2018-07-28T06:59:54.430Z,60.26
2018-07-28T07:00:54.405Z,60.39
2018-07-28T07:01:54.443Z,60.09
2018-07-28T07:02:54.395Z,60.16
2018-07-28T07:03:54.449Z,60.36
2018-07-28T07:04:54.376Z,60.36
2018-07-28T07:05:54.351Z,60.16
2018-07-28T07:06:54.415Z,60.06
2018-07-28T07:07:54.344Z,59.96
2018-07-28T07:08:54.362Z,59.86
2018-07-28T07:09:54.448Z,61.05
2018-07-28T07:10:54.302Z,61.35
2018-07-28T07:11:54.336Z,60.33
2018-07-28T07:12:54.461Z,60.23
2018-07-28T07:13:54.269Z,60.93
2018-07-28T07:14:54.257Z,60.20
2018-07-28T07:15:54.283Z,61.32
2018-07-28T07:16:54.260Z,60.00
2018-07-28T07:17:54.222Z,59.41
2018-07-28T07:18:54.217Z,60.20
2018-07-28T07:19:54.218Z,58.39
2018-07-28T07:20:54.246Z,59.25
2018-07-28T07:21:54.327Z,58.36
2018-07-28T07:22:54.180Z,57.84
2018-07-28T07:23:54.351Z,57.54
2018-07-28T07:24:54.151Z,56.85
2018-07-28T07:25:54.185Z,56.89
2018-07-28T07:26:54.161Z,56.76
2018-07-28T07:27:54.132Z,56.30
2018-07-28T07:28:54.156Z,57.02
2018-07-28T07:29:54.143Z,57.02
2018-07-28T07:30:54.097Z,57.41
2018-07-28T07:31:54.221Z,57.21
2018-07-28T07:32:54.132Z,56.82
2018-07-28T07:33:54.101Z,58.30
2018-07-28T07:34:54.285Z,57.31
2018-07-28T07:35:54.119Z,56.65
2018-07-28T07:36:54.042Z,57.24
2018-07-28T07:37:54.111Z,57.64
2018-07-28T07:38:54.008Z,58.33
2018-07-28T07:39:53.996Z,57.37
2018-07-28T07:40:53.997Z,58.36
2018-07-28T07:41:53.976Z,58.29
2018-07-28T07:42:54.192Z,59.48
2018-07-28T07:43:53.961Z,59.41
2018-07-28T07:44:53.972Z,58.42
2018-07-28T07:45:53.996Z,58.51
2018-07-28T07:46:53.929Z,59.41
2018-07-28T07:47:53.939Z,59.41
2018-07-28T07:48:53.906Z,59.21
2018-07-28T07:49:53.897Z,59.53
2018-07-28T07:50:53.912Z,61.32
2018-07-28T07:51:53.869Z,61.82
2018-07-28T07:52:54.002Z,59.93
2018-07-28T07:53:53.860Z,62.51
2018-07-28T07:54:53.866Z,61.35
2018-07-28T07:55:53.833Z,62.34
2018-07-28T07:56:53.823Z,63.07
2018-07-28T07:57:53.880Z,63.46
2018-07-28T07:58:53.814Z,64.36
2018-07-28T07:59:53.794Z,62.87
2018-07-28T08:00:53.812Z,62.57
2018-07-28T08:01:53.764Z,64.06
2018-07-28T08:02:53.778Z,64.66
2018-07-28T08:03:53.743Z,67.34
2018-07-28T08:04:53.854Z,63.73
2018-07-28T08:05:53.729Z,64.73
2018-07-28T08:06:53.722Z,63.34
2018-07-28T08:07:53.792Z,63.64
2018-07-28T08:08:53.689Z,62.45
2018-07-28T08:09:53.714Z,61.85
2018-07-28T08:10:54.135Z,61.35
2018-07-28T08:11:53.657Z,60.26
2018-07-28T08:12:53.782Z,59.96
2018-07-28T08:13:53.635Z,60.56
2018-07-28T08:14:53.647Z,61.32
2018-07-28T08:15:53.617Z,61.22
2018-07-28T08:16:53.603Z,60.43
2018-07-28T08:17:53.675Z,59.91
2018-07-28T08:18:53.630Z,57.85
2018-07-28T08:19:53.585Z,58.74
2018-07-28T08:20:53.615Z,60.30
2018-07-28T08:21:53.563Z,60.40
2018-07-28T08:22:53.566Z,60.00
2018-07-28T08:23:53.531Z,58.42
2018-07-28T08:24:53.566Z,58.51
2018-07-28T08:25:53.514Z,59.41
2018-07-28T08:26:53.665Z,57.59
2018-07-28T08:27:53.547Z,57.00
2018-07-28T08:28:53.480Z,56.57
2018-07-28T08:29:53.481Z,58.75
2018-07-28T08:30:53.523Z,58.65
2018-07-28T08:31:53.448Z,58.33
2018-07-28T08:32:53.463Z,56.95
2018-07-28T08:33:53.452Z,57.74
2018-07-28T08:34:53.442Z,56.35
2018-07-28T08:35:53.415Z,56.25
2018-07-28T08:36:53.438Z,55.56
2018-07-28T08:37:53.448Z,56.15
2018-07-28T08:38:53.384Z,57.44
2018-07-28T08:39:53.415Z,57.34
2018-07-28T08:40:53.365Z,55.66
2018-07-28T08:41:53.352Z,55.46
2018-07-28T08:42:53.455Z,54.77
2018-07-28T08:43:53.325Z,56.35
2018-07-28T08:44:53.314Z,56.85
2018-07-28T08:45:53.304Z,56.35
2018-07-28T08:46:53.309Z,55.26
2018-07-28T08:47:53.413Z,55.26
2018-07-28T08:48:53.319Z,55.56
2018-07-28T08:49:53.272Z,54.47
2018-07-28T08:50:53.253Z,54.05
2018-07-28T08:51:53.250Z,53.92
2018-07-28T08:52:53.262Z,55.51
2018-07-28T08:53:53.257Z,56.17
2018-07-28T08:54:53.242Z,52.81
2018-07-28T08:55:53.208Z,55.28
2018-07-28T08:56:53.200Z,53.00
2018-07-28T08:57:53.211Z,53.57
2018-07-28T08:58:53.214Z,53.75
2018-07-28T08:59:53.223Z,52.83
2018-07-28T09:00:53.171Z,52.34
2018-07-28T09:01:53.146Z,52.73
2018-07-28T09:02:53.201Z,51.72
2018-07-28T09:03:53.225Z,51.94
2018-07-28T09:04:53.107Z,51.84
2018-07-28T09:05:53.123Z,52.21
2018-07-28T09:06:53.115Z,53.37
2018-07-28T09:07:53.106Z,51.40
2018-07-28T09:08:53.066Z,51.37
2018-07-28T09:09:53.057Z,50.19
2018-07-28T09:10:53.056Z,51.25
2018-07-28T09:11:53.045Z,49.85
2018-07-28T09:12:53.088Z,50.34
2018-07-28T09:13:53.042Z,51.72
2018-07-28T09:14:53.005Z,51.10
2018-07-28T09:15:53.094Z,51.00
2018-07-28T09:16:52.990Z,50.09
2018-07-28T09:17:53.029Z,50.68
2018-07-28T09:18:52.964Z,49.68
2018-07-28T09:19:52.955Z,48.89
2018-07-28T09:20:52.962Z,49.60
2018-07-28T09:21:53.065Z,49.82
2018-07-28T09:22:52.949Z,49.26
2018-07-28T09:23:52.915Z,49.85
2018-07-28T09:24:52.919Z,50.21
2018-07-28T09:25:52.895Z,49.06
2018-07-28T09:26:52.887Z,50.24
2018-07-28T09:27:52.937Z,50.16
2018-07-28T09:28:52.868Z,50.46
2018-07-28T09:29:52.861Z,49.67
2018-07-28T09:30:52.839Z,49.55
2018-07-28T09:31:52.830Z,49.26
2018-07-28T09:32:52.894Z,51.62
2018-07-28T09:33:52.812Z,50.34
2018-07-28T09:34:52.798Z,49.13
2018-07-28T09:35:52.794Z,49.99
2018-07-28T09:36:52.847Z,47.53
2018-07-28T09:37:52.791Z,48.82
2018-07-28T09:38:52.771Z,49.38
2018-07-28T09:39:52.773Z,46.72
2018-07-28T09:40:52.837Z,47.12
2018-07-28T09:41:52.730Z,49.30
2018-07-28T09:42:52.777Z,46.92
2018-07-28T09:43:52.709Z,48.13
2018-07-28T09:44:52.698Z,48.03
2018-07-28T09:45:52.706Z,47.04
2018-07-28T09:46:52.734Z,47.51
2018-07-28T09:47:52.690Z,46.62
2018-07-28T09:48:52.655Z,47.71
2018-07-28T09:49:52.676Z,47.58
2018-07-28T09:50:52.661Z,45.42
2018-07-28T09:51:52.629Z,47.00
2018-07-28T09:52:52.643Z,45.52
2018-07-28T09:53:52.604Z,46.68
2018-07-28T09:54:52.606Z,47.15
2018-07-28T09:55:52.606Z,47.17
2018-07-28T09:56:52.583Z,47.36
2018-07-28T09:57:52.595Z,46.95
2018-07-28T09:58:52.558Z,47.15
2018-07-28T09:59:52.567Z,46.88
2018-07-28T10:00:52.535Z,45.40
2018-07-28T10:01:52.530Z,44.91
2018-07-28T10:02:52.576Z,44.91
2018-07-28T10:03:52.508Z,45.40
2018-07-28T10:04:52.495Z,44.22
2018-07-28T10:05:52.487Z,44.01
2018-07-28T10:06:52.475Z,46.09
2018-07-28T10:07:52.512Z,47.15
2018-07-28T10:08:52.529Z,44.89
2018-07-28T10:09:52.453Z,44.89
2018-07-28T10:10:52.435Z,43.73
2018-07-28T10:11:52.429Z,43.95
2018-07-28T10:12:52.416Z,44.83
2018-07-28T10:13:52.431Z,44.66
2018-07-28T10:14:52.408Z,43.18
2018-07-28T10:15:52.386Z,44.24
2018-07-28T10:16:52.387Z,44.83
2018-07-28T10:17:52.366Z,45.50
2018-07-28T10:18:52.386Z,45.20
2018-07-28T10:19:52.384Z,45.20
2018-07-28T10:20:52.398Z,43.43
2018-07-28T10:21:52.329Z,42.82
2018-07-28T10:22:52.346Z,45.87
2018-07-28T10:23:52.335Z,44.91
2018-07-28T10:24:52.295Z,45.09
2018-07-28T10:25:52.302Z,43.90
2018-07-28T10:26:52.308Z,43.12
2018-07-28T10:27:52.264Z,44.08
2018-07-28T10:28:52.254Z,44.47
2018-07-28T10:29:52.293Z,46.34
2018-07-28T10:30:52.237Z,44.35
2018-07-28T10:31:52.224Z,44.26
2018-07-28T10:32:52.236Z,44.55
2018-07-28T10:33:52.206Z,41.63
2018-07-28T10:34:52.218Z,42.80
2018-07-28T10:35:52.185Z,43.00
2018-07-28T10:36:52.182Z,42.41
2018-07-28T10:37:52.165Z,42.92
2018-07-28T10:38:52.157Z,43.41
2018-07-28T10:39:52.210Z,44.12
2018-07-28T10:40:52.169Z,44.42
2018-07-28T10:41:52.158Z,44.32
2018-07-28T10:42:52.118Z,44.01
2018-07-28T10:43:52.167Z,45.01
2018-07-28T10:44:52.098Z,44.10
2018-07-28T10:45:52.173Z,44.52
2018-07-28T10:46:52.130Z,43.53
2018-07-28T10:47:52.073Z,43.73
2018-07-28T10:48:52.060Z,45.81
2018-07-28T10:49:52.057Z,45.03
2018-07-28T10:50:52.171Z,44.93
2018-07-28T10:51:52.054Z,44.05
2018-07-28T10:52:52.036Z,43.26
2018-07-28T10:53:52.005Z,45.72
2018-07-28T10:54:51.993Z,45.50
2018-07-28T10:55:52.007Z,44.22
2018-07-28T10:56:51.976Z,44.42
2018-07-28T10:57:51.992Z,44.91
2018-07-28T10:58:51.950Z,46.19
2018-07-28T10:59:51.940Z,44.59
2018-07-28T11:00:51.956Z,44.69
2018-07-28T11:01:51.919Z,44.59
2018-07-28T11:02:51.907Z,45.63
2018-07-28T11:03:51.903Z,42.79
2018-07-28T11:04:51.903Z,44.77
2018-07-28T11:05:51.924Z,43.76
2018-07-28T11:06:51.867Z,43.86
2018-07-28T11:07:51.857Z,41.78
2018-07-28T11:08:51.850Z,43.04
2018-07-28T11:09:51.895Z,43.02
2018-07-28T11:10:51.857Z,41.13
2018-07-28T11:11:51.920Z,41.00
2018-07-28T11:12:51.815Z,41.21
2018-07-28T11:13:51.800Z,41.52
2018-07-28T11:14:51.827Z,40.88
2018-07-28T11:15:51.825Z,42.66
2018-07-28T11:16:51.787Z,44.16
2018-07-28T11:17:51.761Z,44.45
2018-07-28T11:18:51.800Z,43.08
2018-07-28T11:19:51.753Z,49.70
2018-07-28T11:20:51.755Z,53.75
2018-07-28T11:21:51.749Z,58.76
2018-07-28T11:22:51.712Z,64.33
2018-07-28T11:23:51.701Z,62.99
2018-07-28T11:24:51.815Z,78.97
2018-07-28T11:25:51.731Z,68.63
2018-07-28T11:26:51.672Z,79.71
2018-07-28T11:27:51.667Z,76.29
2018-07-28T11:28:51.648Z,77.66
2018-07-28T11:29:51.636Z,86.96
2018-07-28T11:30:51.661Z,88.79
2018-07-28T11:31:51.635Z,89.53
2018-07-28T11:32:51.710Z,89.87
2018-07-28T11:33:51.600Z,89.37
2018-07-28T11:34:51.600Z,89.02
2018-07-28T11:35:51.629Z,88.82
2018-07-28T11:36:51.566Z,88.87
2018-07-28T11:37:51.565Z,86.47
2018-07-28T11:38:51.549Z,89.21
2018-07-28T11:39:51.535Z,86.42
2018-07-28T11:40:51.550Z,87.41
2018-07-28T11:41:51.544Z,91.80
2018-07-28T11:42:51.499Z,88.91
2018-07-28T11:43:51.521Z,91.20
2018-07-28T11:44:51.489Z,89.80
2018-07-28T11:45:51.561Z,89.15
2018-07-28T11:46:51.460Z,86.26
2018-07-28T11:47:51.459Z,88.15
2018-07-28T11:48:51.444Z,87.81
2018-07-28T11:49:51.426Z,89.22
2018-07-28T11:50:51.436Z,84.52
2018-07-28T11:51:51.438Z,79.42
2018-07-28T11:52:51.429Z,84.46
2018-07-28T11:53:51.423Z,79.98
2018-07-28T11:54:51.375Z,78.70
2018-07-28T11:55:51.375Z,69.78
2018-07-28T11:56:51.580Z,75.29
2018-07-28T11:57:51.358Z,68.92
2018-07-28T11:58:51.382Z,67.35
2018-07-28T11:59:51.330Z,59.50
2018-07-28T12:00:51.352Z,60.55
2018-07-28T12:01:51.608Z,59.47
2018-07-28T12:02:51.323Z,61.10
2018-07-28T12:03:51.288Z,59.41
2018-07-28T12:04:51.596Z,58.33
2018-07-28T12:05:51.271Z,59.08
2018-07-28T12:06:51.301Z,59.45
2018-07-28T12:07:51.297Z,57.07
2018-07-28T12:08:51.500Z,58.67
2018-07-28T12:09:51.230Z,54.91
2018-07-28T12:10:51.472Z,58.64
2018-07-28T12:11:51.224Z,55.96
2018-07-28T12:12:51.245Z,53.84
2018-07-28T12:13:51.339Z,54.87
2018-07-28T12:14:51.256Z,54.77
2018-07-28T12:15:51.178Z,55.51
2018-07-28T12:16:51.165Z,57.86
2018-07-28T12:17:51.193Z,55.99
2018-07-28T12:18:51.378Z,55.33
2018-07-28T12:19:51.334Z,56.01
2018-07-28T12:20:51.130Z,59.31
2018-07-28T12:21:51.145Z,58.48
2018-07-28T12:22:51.163Z,61.71
2018-07-28T12:23:51.135Z,60.92
2018-07-28T12:24:51.093Z,63.02
2018-07-28T12:25:51.125Z,64.26
2018-07-28T12:26:51.104Z,63.86
2018-07-28T12:27:51.148Z,65.41
2018-07-28T12:28:51.177Z,69.09
2018-07-28T12:29:51.263Z,68.83
2018-07-28T12:30:51.032Z,70.38
2018-07-28T12:31:51.038Z,68.53
2018-07-28T12:32:51.077Z,68.27
2018-07-28T12:33:51.013Z,68.76
2018-07-28T12:34:50.999Z,69.95
2018-07-28T12:35:50.984Z,70.15
2018-07-28T12:36:50.972Z,70.25
2018-07-28T12:37:50.990Z,71.08
2018-07-28T12:38:51.103Z,72.66
2018-07-28T12:39:50.944Z,71.77
2018-07-28T12:40:50.934Z,71.97
2018-07-28T12:41:50.942Z,71.24
2018-07-28T12:42:50.938Z,70.61
2018-07-28T12:43:50.914Z,69.95
2018-07-28T12:44:50.892Z,68.83
2018-07-28T12:45:50.885Z,68.86
2018-07-28T12:46:50.873Z,69.09
2018-07-28T12:47:50.891Z,68.73
2018-07-28T12:48:50.873Z,69.95
2018-07-28T12:49:50.845Z,70.68
2018-07-28T12:50:50.850Z,71.11
2018-07-28T12:51:50.827Z,71.41
2018-07-28T12:52:50.816Z,72.70